sensor_id;sensor_type;location;lat;lon;timestamp;P1;durP1;ratioP1;P2;durP2;ratioP2
74269;SDS011;62754;48.252;11.654;2023-07-29T00:00:50;6.05;;;2.60;;
74269;SDS011;62754;48.252;11.654;2023-07-29T00:03:18;3.65;;;2.15;;
74269;SDS011;62754;48.252;11.654;2023-07-29T00:05:43;4.68;;;2.47;;
74269;SDS011;62754;48.252;11.654;2023-07-29T00:08:12;4.78;;;2.20;;
74269;SDS011;62754;48.252;11.654;2023-07-29T00:10:42;9.65;;;6.35;;
74269;SDS011;62754;48.252;11.654;2023-07-29T00:13:10;8.10;;;5.22;;
74269;SDS011;62754;48.252;11.654;2023-07-29T00:15:36;4.28;;;2.78;;
74269;SDS011;62754;48.252;11.654;2023-07-29T00:18:02;4.97;;;2.55;;
74269;SDS011;62754;48.252;11.654;2023-07-29T00:20:27;5.53;;;2.60;;
74269;SDS011;62754;48.252;11.654;2023-07-29T00:22:56;3.92;;;2.45;;
74269;SDS011;62754;48.252;11.654;2023-07-29T00:25:21;5.28;;;3.28;;
74269;SDS011;62754;48.252;11.654;2023-07-29T00:27:49;4.90;;;2.75;;
74269;SDS011;62754;48.252;11.654;2023-07-29T00:30:20;4.40;;;2.63;;
74269;SDS011;62754;48.252;11.654;2023-07-29T00:32:45;4.25;;;2.47;;
74269;SDS011;62754;48.252;11.654;2023-07-29T00:35:16;5.53;;;2.50;;
74269;SDS011;62754;48.252;11.654;2023-07-29T00:37:42;5.35;;;2.75;;
74269;SDS011;62754;48.252;11.654;2023-07-29T00:40:22;10.20;;;3.28;;
74269;SDS011;62754;48.252;11.654;2023-07-29T00:42:53;4.90;;;2.60;;
74269;SDS011;62754;48.252;11.654;2023-07-29T00:45:19;8.05;;;2.88;;
74269;SDS011;62754;48.252;11.654;2023-07-29T00:47:45;5.03;;;2.67;;
74269;SDS011;62754;48.252;11.654;2023-07-29T00:50:15;6.50;;;2.88;;
74269;SDS011;62754;48.252;11.654;2023-07-29T00:52:44;8.07;;;3.47;;
74269;SDS011;62754;48.252;11.654;2023-07-29T00:55:11;5.53;;;3.08;;
74269;SDS011;62754;48.252;11.654;2023-07-29T00:57:40;6.40;;;3.33;;
74269;SDS011;62754;48.252;11.654;2023-07-29T01:02:37;5.47;;;3.75;;
74269;SDS011;62754;48.252;11.654;2023-07-29T01:05:05;7.70;;;3.60;;
74269;SDS011;62754;48.252;11.654;2023-07-29T01:15:58;4.90;;;3.20;;
74269;SDS011;62754;48.252;11.654;2023-07-29T01:18:32;5.50;;;3.22;;
74269;SDS011;62754;48.252;11.654;2023-07-29T01:21:06;5.45;;;3.40;;
74269;SDS011;62754;48.252;11.654;2023-07-29T01:23:33;4.22;;;2.65;;
74269;SDS011;62754;48.252;11.654;2023-07-29T01:26:00;5.30;;;2.65;;
74269;SDS011;62754;48.252;11.654;2023-07-29T01:30:54;6.05;;;2.88;;
74269;SDS011;62754;48.252;11.654;2023-07-29T01:33:26;4.80;;;2.58;;
74269;SDS011;62754;48.252;11.654;2023-07-29T01:36:01;5.55;;;2.80;;
74269;SDS011;62754;48.252;11.654;2023-07-29T01:38:32;5.63;;;3.03;;
74269;SDS011;62754;48.252;11.654;2023-07-29T01:41:01;4.20;;;2.40;;
74269;SDS011;62754;48.252;11.654;2023-07-29T01:43:30;4.30;;;2.58;;
74269;SDS011;62754;48.252;11.654;2023-07-29T01:46:00;4.60;;;2.95;;
74269;SDS011;62754;48.252;11.654;2023-07-29T01:48:26;5.13;;;2.78;;
74269;SDS011;62754;48.252;11.654;2023-07-29T01:50:54;3.40;;;2.22;;
74269;SDS011;62754;48.252;11.654;2023-07-29T01:53:22;5.75;;;2.85;;
74269;SDS011;62754;48.252;11.654;2023-07-29T01:55:48;6.82;;;4.00;;
74269;SDS011;62754;48.252;11.654;2023-07-29T01:58:13;5.70;;;3.63;;
74269;SDS011;62754;48.252;11.654;2023-07-29T02:00:39;5.20;;;3.67;;
74269;SDS011;62754;48.252;11.654;2023-07-29T02:03:05;5.10;;;3.58;;
74269;SDS011;62754;48.252;11.654;2023-07-29T02:05:35;5.60;;;3.58;;
74269;SDS011;62754;48.252;11.654;2023-07-29T02:08:01;5.70;;;3.60;;
74269;SDS011;62754;48.252;11.654;2023-07-29T02:10:29;6.90;;;3.40;;
74269;SDS011;62754;48.252;11.654;2023-07-29T02:12:57;5.97;;;3.28;;
74269;SDS011;62754;48.252;11.654;2023-07-29T02:15:25;5.07;;;3.63;;
74269;SDS011;62754;48.252;11.654;2023-07-29T02:17:51;4.88;;;2.97;;
74269;SDS011;62754;48.252;11.654;2023-07-29T02:20:17;6.45;;;2.80;;
74269;SDS011;62754;48.252;11.654;2023-07-29T02:22:45;5.15;;;2.35;;
74269;SDS011;62754;48.252;11.654;2023-07-29T02:25:13;4.38;;;2.40;;
74269;SDS011;62754;48.252;11.654;2023-07-29T02:27:39;4.05;;;2.35;;
74269;SDS011;62754;48.252;11.654;2023-07-29T02:30:05;5.53;;;2.30;;
74269;SDS011;62754;48.252;11.654;2023-07-29T02:32:34;4.05;;;1.98;;
74269;SDS011;62754;48.252;11.654;2023-07-29T02:35:05;4.15;;;2.55;;
74269;SDS011;62754;48.252;11.654;2023-07-29T02:37:33;4.72;;;2.55;;
74269;SDS011;62754;48.252;11.654;2023-07-29T02:40:02;4.15;;;2.10;;
74269;SDS011;62754;48.252;11.654;2023-07-29T02:42:30;3.67;;;2.15;;
74269;SDS011;62754;48.252;11.654;2023-07-29T02:44:59;4.00;;;2.30;;
74269;SDS011;62754;48.252;11.654;2023-07-29T02:47:24;5.38;;;2.63;;
74269;SDS011;62754;48.252;11.654;2023-07-29T02:49:52;3.33;;;2.30;;
74269;SDS011;62754;48.252;11.654;2023-07-29T02:52:18;6.38;;;2.22;;
74269;SDS011;62754;48.252;11.654;2023-07-29T02:54:46;5.65;;;2.85;;
74269;SDS011;62754;48.252;11.654;2023-07-29T02:57:14;6.07;;;3.15;;
74269;SDS011;62754;48.252;11.654;2023-07-29T02:59:40;4.53;;;3.03;;
74269;SDS011;62754;48.252;11.654;2023-07-29T03:02:10;4.93;;;3.20;;
74269;SDS011;62754;48.252;11.654;2023-07-29T03:04:36;4.28;;;2.90;;
74269;SDS011;62754;48.252;11.654;2023-07-29T03:07:04;5.28;;;2.72;;
74269;SDS011;62754;48.252;11.654;2023-07-29T03:09:30;4.28;;;2.75;;
74269;SDS011;62754;48.252;11.654;2023-07-29T03:11:56;4.97;;;2.45;;
74269;SDS011;62754;48.252;11.654;2023-07-29T03:14:21;5.50;;;3.03;;
74269;SDS011;62754;48.252;11.654;2023-07-29T03:16:47;9.10;;;3.55;;
74269;SDS011;62754;48.252;11.654;2023-07-29T03:19:15;4.18;;;2.80;;
74269;SDS011;62754;48.252;11.654;2023-07-29T03:21:41;4.25;;;2.50;;
74269;SDS011;62754;48.252;11.654;2023-07-29T03:24:06;4.68;;;2.30;;
74269;SDS011;62754;48.252;11.654;2023-07-29T03:26:32;3.50;;;2.00;;
74269;SDS011;62754;48.252;11.654;2023-07-29T03:29:00;3.85;;;2.08;;
74269;SDS011;62754;48.252;11.654;2023-07-29T03:31:26;4.07;;;2.22;;
74269;SDS011;62754;48.252;11.654;2023-07-29T03:33:52;4.38;;;2.30;;
74269;SDS011;62754;48.252;11.654;2023-07-29T03:36:18;3.10;;;1.90;;
74269;SDS011;62754;48.252;11.654;2023-07-29T03:38:43;3.75;;;2.05;;
74269;SDS011;62754;48.252;11.654;2023-07-29T03:41:09;4.28;;;2.13;;
74269;SDS011;62754;48.252;11.654;2023-07-29T03:43:35;4.15;;;2.03;;
74269;SDS011;62754;48.252;11.654;2023-07-29T03:51:01;4.10;;;2.10;;
74269;SDS011;62754;48.252;11.654;2023-07-29T03:53:30;3.92;;;2.03;;
74269;SDS011;62754;48.252;11.654;2023-07-29T03:55:55;3.83;;;2.00;;
74269;SDS011;62754;48.252;11.654;2023-07-29T03:58:24;3.95;;;2.30;;
74269;SDS011;62754;48.252;11.654;2023-07-29T04:00:49;3.92;;;1.90;;
74269;SDS011;62754;48.252;11.654;2023-07-29T04:03:15;3.75;;;2.00;;
74269;SDS011;62754;48.252;11.654;2023-07-29T04:05:48;4.35;;;1.98;;
74269;SDS011;62754;48.252;11.654;2023-07-29T04:08:14;3.72;;;1.80;;
74269;SDS011;62754;48.252;11.654;2023-07-29T04:10:39;4.55;;;1.75;;
74269;SDS011;62754;48.252;11.654;2023-07-29T04:13:05;4.22;;;2.00;;
74269;SDS011;62754;48.252;11.654;2023-07-29T04:15:33;4.03;;;1.60;;
74269;SDS011;62754;48.252;11.654;2023-07-29T04:18:02;3.97;;;1.83;;
74269;SDS011;62754;48.252;11.654;2023-07-29T04:20:28;4.68;;;1.92;;
74269;SDS011;62754;48.252;11.654;2023-07-29T04:22:54;6.45;;;1.92;;
74269;SDS011;62754;48.252;11.654;2023-07-29T04:25:20;4.50;;;1.88;;
74269;SDS011;62754;48.252;11.654;2023-07-29T04:27:45;7.20;;;2.20;;
74269;SDS011;62754;48.252;11.654;2023-07-29T04:30:13;4.35;;;1.80;;
74269;SDS011;62754;48.252;11.654;2023-07-29T04:32:41;4.38;;;1.58;;
74269;SDS011;62754;48.252;11.654;2023-07-29T04:35:09;3.90;;;1.80;;
74269;SDS011;62754;48.252;11.654;2023-07-29T04:37:35;3.50;;;1.80;;
74269;SDS011;62754;48.252;11.654;2023-07-29T04:40:06;4.00;;;1.88;;
74269;SDS011;62754;48.252;11.654;2023-07-29T04:42:32;4.80;;;1.65;;
74269;SDS011;62754;48.252;11.654;2023-07-29T04:44:58;4.93;;;1.85;;
74269;SDS011;62754;48.252;11.654;2023-07-29T04:47:26;3.03;;;1.70;;
74269;SDS011;62754;48.252;11.654;2023-07-29T04:49:52;4.85;;;1.90;;
74269;SDS011;62754;48.252;11.654;2023-07-29T04:52:18;4.05;;;1.70;;
74269;SDS011;62754;48.252;11.654;2023-07-29T04:54:43;4.15;;;1.52;;
74269;SDS011;62754;48.252;11.654;2023-07-29T04:57:09;3.67;;;2.00;;
74269;SDS011;62754;48.252;11.654;2023-07-29T04:59:35;3.50;;;1.73;;
74269;SDS011;62754;48.252;11.654;2023-07-29T05:02:01;3.60;;;1.77;;
74269;SDS011;62754;48.252;11.654;2023-07-29T05:04:29;2.45;;;1.30;;
74269;SDS011;62754;48.252;11.654;2023-07-29T05:06:57;9.25;;;2.17;;
74269;SDS011;62754;48.252;11.654;2023-07-29T05:09:27;4.05;;;1.92;;
74269;SDS011;62754;48.252;11.654;2023-07-29T05:11:53;5.78;;;1.70;;
74269;SDS011;62754;48.252;11.654;2023-07-29T05:14:18;3.25;;;1.63;;
74269;SDS011;62754;48.252;11.654;2023-07-29T05:16:44;3.17;;;1.75;;
74269;SDS011;62754;48.252;11.654;2023-07-29T05:19:10;3.55;;;1.60;;
74269;SDS011;62754;48.252;11.654;2023-07-29T05:21:38;2.67;;;1.67;;
74269;SDS011;62754;48.252;11.654;2023-07-29T05:24:07;3.83;;;1.70;;
74269;SDS011;62754;48.252;11.654;2023-07-29T05:26:33;2.97;;;1.60;;
74269;SDS011;62754;48.252;11.654;2023-07-29T05:29:03;3.22;;;1.45;;
74269;SDS011;62754;48.252;11.654;2023-07-29T05:31:31;4.28;;;1.30;;
74269;SDS011;62754;48.252;11.654;2023-07-29T05:33:57;2.70;;;1.30;;
74269;SDS011;62754;48.252;11.654;2023-07-29T05:36:23;4.60;;;1.58;;
74269;SDS011;62754;48.252;11.654;2023-07-29T05:38:51;3.22;;;1.63;;
74269;SDS011;62754;48.252;11.654;2023-07-29T05:41:19;2.70;;;1.27;;
74269;SDS011;62754;48.252;11.654;2023-07-29T05:43:45;3.08;;;1.33;;
74269;SDS011;62754;48.252;11.654;2023-07-29T05:46:13;3.05;;;1.63;;
74269;SDS011;62754;48.252;11.654;2023-07-29T05:48:41;3.40;;;1.20;;
74269;SDS011;62754;48.252;11.654;2023-07-29T05:51:09;5.50;;;1.50;;
74269;SDS011;62754;48.252;11.654;2023-07-29T05:53:35;5.88;;;1.63;;
74269;SDS011;62754;48.252;11.654;2023-07-29T05:56:03;3.78;;;1.40;;
74269;SDS011;62754;48.252;11.654;2023-07-29T05:58:31;3.83;;;1.73;;
74269;SDS011;62754;48.252;11.654;2023-07-29T06:00:58;3.38;;;1.88;;
74269;SDS011;62754;48.252;11.654;2023-07-29T06:03:23;5.03;;;1.98;;
74269;SDS011;62754;48.252;11.654;2023-07-29T06:05:51;4.85;;;1.85;;
74269;SDS011;62754;48.252;11.654;2023-07-29T06:08:20;2.60;;;1.65;;
74269;SDS011;62754;48.252;11.654;2023-07-29T06:10:45;4.60;;;1.70;;
74269;SDS011;62754;48.252;11.654;2023-07-29T06:13:13;3.88;;;1.83;;
74269;SDS011;62754;48.252;11.654;2023-07-29T06:15:39;3.47;;;1.55;;
74269;SDS011;62754;48.252;11.654;2023-07-29T06:18:08;3.53;;;1.30;;
74269;SDS011;62754;48.252;11.654;2023-07-29T06:20:36;2.35;;;1.23;;
74269;SDS011;62754;48.252;11.654;2023-07-29T06:23:05;2.42;;;1.13;;
74269;SDS011;62754;48.252;11.654;2023-07-29T06:25:34;3.35;;;1.25;;
74269;SDS011;62754;48.252;11.654;2023-07-29T06:28:02;2.20;;;1.10;;
74269;SDS011;62754;48.252;11.654;2023-07-29T06:30:28;2.63;;;1.27;;
74269;SDS011;62754;48.252;11.654;2023-07-29T06:32:55;2.35;;;1.17;;
74269;SDS011;62754;48.252;11.654;2023-07-29T06:35:21;2.90;;;1.25;;
74269;SDS011;62754;48.252;11.654;2023-07-29T06:37:47;4.15;;;1.30;;
74269;SDS011;62754;48.252;11.654;2023-07-29T06:40:15;2.45;;;1.25;;
74269;SDS011;62754;48.252;11.654;2023-07-29T06:42:41;2.63;;;1.10;;
74269;SDS011;62754;48.252;11.654;2023-07-29T06:45:09;2.30;;;1.10;;
74269;SDS011;62754;48.252;11.654;2023-07-29T06:47:37;2.70;;;1.10;;
74269;SDS011;62754;48.252;11.654;2023-07-29T06:50:05;2.58;;;0.98;;
74269;SDS011;62754;48.252;11.654;2023-07-29T06:52:31;3.85;;;1.38;;
74269;SDS011;62754;48.252;11.654;2023-07-29T06:54:59;3.20;;;1.20;;
74269;SDS011;62754;48.252;11.654;2023-07-29T06:57:25;2.60;;;0.90;;
74269;SDS011;62754;48.252;11.654;2023-07-29T06:59:51;2.72;;;1.30;;
74269;SDS011;62754;48.252;11.654;2023-07-29T07:02:16;2.92;;;1.20;;
74269;SDS011;62754;48.252;11.654;2023-07-29T07:04:45;2.95;;;1.33;;
74269;SDS011;62754;48.252;11.654;2023-07-29T07:07:11;4.60;;;1.58;;
74269;SDS011;62754;48.252;11.654;2023-07-29T07:09:39;3.42;;;1.20;;
74269;SDS011;62754;48.252;11.654;2023-07-29T07:12:05;3.13;;;1.60;;
74269;SDS011;62754;48.252;11.654;2023-07-29T07:14:33;4.88;;;1.40;;
74269;SDS011;62754;48.252;11.654;2023-07-29T07:17:02;7.57;;;1.80;;
74269;SDS011;62754;48.252;11.654;2023-07-29T07:19:30;4.72;;;1.52;;
74269;SDS011;62754;48.252;11.654;2023-07-29T07:21:56;4.57;;;1.80;;
74269;SDS011;62754;48.252;11.654;2023-07-29T07:24:24;5.05;;;1.80;;
74269;SDS011;62754;48.252;11.654;2023-07-29T07:26:50;4.07;;;1.77;;
74269;SDS011;62754;48.252;11.654;2023-07-29T07:29:15;5.90;;;1.90;;
74269;SDS011;62754;48.252;11.654;2023-07-29T07:31:49;3.63;;;1.95;;
74269;SDS011;62754;48.252;11.654;2023-07-29T07:34:19;4.32;;;2.13;;
74269;SDS011;62754;48.252;11.654;2023-07-29T07:36:48;4.90;;;1.83;;
74269;SDS011;62754;48.252;11.654;2023-07-29T07:39:16;5.47;;;2.05;;
74269;SDS011;62754;48.252;11.654;2023-07-29T07:41:44;4.80;;;1.95;;
74269;SDS011;62754;48.252;11.654;2023-07-29T07:44:12;4.68;;;2.30;;
74269;SDS011;62754;48.252;11.654;2023-07-29T07:46:43;7.03;;;2.05;;
74269;SDS011;62754;48.252;11.654;2023-07-29T07:49:09;4.30;;;2.20;;
74269;SDS011;62754;48.252;11.654;2023-07-29T07:51:37;4.60;;;2.08;;
74269;SDS011;62754;48.252;11.654;2023-07-29T07:54:02;3.38;;;2.00;;
74269;SDS011;62754;48.252;11.654;2023-07-29T07:56:31;3.97;;;2.15;;
74269;SDS011;62754;48.252;11.654;2023-07-29T07:58:57;5.03;;;2.22;;
74269;SDS011;62754;48.252;11.654;2023-07-29T08:01:25;3.92;;;2.00;;
74269;SDS011;62754;48.252;11.654;2023-07-29T08:03:59;5.10;;;1.90;;
74269;SDS011;62754;48.252;11.654;2023-07-29T08:06:24;3.55;;;1.75;;
74269;SDS011;62754;48.252;11.654;2023-07-29T08:08:50;4.97;;;1.80;;
74269;SDS011;62754;48.252;11.654;2023-07-29T08:11:21;7.28;;;2.10;;
74269;SDS011;62754;48.252;11.654;2023-07-29T08:13:49;3.78;;;1.70;;
74269;SDS011;62754;48.252;11.654;2023-07-29T08:16:21;4.10;;;1.67;;
74269;SDS011;62754;48.252;11.654;2023-07-29T08:18:47;3.95;;;1.80;;
74269;SDS011;62754;48.252;11.654;2023-07-29T08:21:13;3.90;;;1.85;;
74269;SDS011;62754;48.252;11.654;2023-07-29T08:23:41;4.57;;;1.80;;
74269;SDS011;62754;48.252;11.654;2023-07-29T08:26:09;3.05;;;1.52;;
74269;SDS011;62754;48.252;11.654;2023-07-29T08:28:36;8.65;;;2.20;;
74269;SDS011;62754;48.252;11.654;2023-07-29T08:31:03;4.03;;;2.20;;
74269;SDS011;62754;48.252;11.654;2023-07-29T08:33:30;5.43;;;1.80;;
74269;SDS011;62754;48.252;11.654;2023-07-29T08:35:57;4.47;;;2.15;;
74269;SDS011;62754;48.252;11.654;2023-07-29T08:38:22;3.30;;;1.95;;
74269;SDS011;62754;48.252;11.654;2023-07-29T08:40:50;3.75;;;1.90;;
74269;SDS011;62754;48.252;11.654;2023-07-29T08:43:18;5.90;;;2.10;;
74269;SDS011;62754;48.252;11.654;2023-07-29T08:45:48;4.32;;;2.00;;
74269;SDS011;62754;48.252;11.654;2023-07-29T08:48:17;3.25;;;1.95;;
74269;SDS011;62754;48.252;11.654;2023-07-29T08:50:49;3.90;;;1.80;;
74269;SDS011;62754;48.252;11.654;2023-07-29T08:53:17;3.55;;;1.90;;
74269;SDS011;62754;48.252;11.654;2023-07-29T08:55:43;3.92;;;2.13;;
74269;SDS011;62754;48.252;11.654;2023-07-29T08:58:09;3.45;;;1.90;;
74269;SDS011;62754;48.252;11.654;2023-07-29T09:00:36;3.95;;;2.10;;
74269;SDS011;62754;48.252;11.654;2023-07-29T09:03:06;3.72;;;1.83;;
74269;SDS011;62754;48.252;11.654;2023-07-29T09:05:34;4.22;;;1.88;;
74269;SDS011;62754;48.252;11.654;2023-07-29T09:08:03;3.45;;;1.98;;
74269;SDS011;62754;48.252;11.654;2023-07-29T09:10:34;3.58;;;1.90;;
74269;SDS011;62754;48.252;11.654;2023-07-29T09:13:03;4.55;;;2.00;;
74269;SDS011;62754;48.252;11.654;2023-07-29T09:15:32;5.50;;;1.95;;
74269;SDS011;62754;48.252;11.654;2023-07-29T09:18:17;4.07;;;2.20;;
74269;SDS011;62754;48.252;11.654;2023-07-29T09:20:47;2.85;;;1.70;;
74269;SDS011;62754;48.252;11.654;2023-07-29T09:23:18;3.55;;;2.25;;
74269;SDS011;62754;48.252;11.654;2023-07-29T09:25:47;8.90;;;2.05;;
74269;SDS011;62754;48.252;11.654;2023-07-29T09:28:13;3.47;;;1.90;;
74269;SDS011;62754;48.252;11.654;2023-07-29T09:30:44;3.88;;;2.20;;
74269;SDS011;62754;48.252;11.654;2023-07-29T09:33:14;4.63;;;2.00;;
74269;SDS011;62754;48.252;11.654;2023-07-29T09:35:41;5.28;;;2.20;;
74269;SDS011;62754;48.252;11.654;2023-07-29T09:38:07;4.18;;;1.90;;
74269;SDS011;62754;48.252;11.654;2023-07-29T09:40:39;5.28;;;2.08;;
74269;SDS011;62754;48.252;11.654;2023-07-29T09:43:09;3.58;;;1.92;;
74269;SDS011;62754;48.252;11.654;2023-07-29T09:45:35;4.45;;;2.00;;
74269;SDS011;62754;48.252;11.654;2023-07-29T09:48:05;4.05;;;1.90;;
74269;SDS011;62754;48.252;11.654;2023-07-29T09:50:31;4.50;;;2.13;;
74269;SDS011;62754;48.252;11.654;2023-07-29T09:52:59;4.25;;;2.15;;
74269;SDS011;62754;48.252;11.654;2023-07-29T09:55:27;2.90;;;1.70;;
74269;SDS011;62754;48.252;11.654;2023-07-29T09:57:56;4.00;;;2.55;;
74269;SDS011;62754;48.252;11.654;2023-07-29T10:00:23;3.42;;;2.08;;
74269;SDS011;62754;48.252;11.654;2023-07-29T10:02:51;3.80;;;2.20;;
74269;SDS011;62754;48.252;11.654;2023-07-29T10:05:21;4.00;;;2.40;;
74269;SDS011;62754;48.252;11.654;2023-07-29T10:07:47;5.22;;;2.30;;
74269;SDS011;62754;48.252;11.654;2023-07-29T10:10:16;3.72;;;2.10;;
74269;SDS011;62754;48.252;11.654;2023-07-29T10:12:43;3.35;;;1.92;;
74269;SDS011;62754;48.252;11.654;2023-07-29T10:15:08;3.55;;;1.90;;
74269;SDS011;62754;48.252;11.654;2023-07-29T10:17:38;3.50;;;2.10;;
74269;SDS011;62754;48.252;11.654;2023-07-29T10:20:05;5.20;;;2.20;;
74269;SDS011;62754;48.252;11.654;2023-07-29T10:22:39;3.67;;;2.20;;
74269;SDS011;62754;48.252;11.654;2023-07-29T10:25:26;3.67;;;2.15;;
74269;SDS011;62754;48.252;11.654;2023-07-29T10:28:04;3.42;;;2.22;;
